createdAt,value
2019-02-25T00:00:22.957Z,21.73
2019-02-25T00:02:59.270Z,13.97
2019-02-25T00:05:27.398Z,13.20
2019-02-25T00:08:01.019Z,16.73
2019-02-25T00:10:37.079Z,20.73
2019-02-25T00:13:09.382Z,15.53
2019-02-25T00:15:49.882Z,17.63
2019-02-25T00:18:22.939Z,14.00
2019-02-25T00:20:54.258Z,20.60
2019-02-25T00:23:28.932Z,20.10
2019-02-25T00:25:59.432Z,18.30
2019-02-25T00:28:29.718Z,16.13
2019-02-25T00:31:00.117Z,16.60
2019-02-25T00:33:30.421Z,15.60
2019-02-25T00:36:00.531Z,13.93
2019-02-25T00:38:31.017Z,17.47
2019-02-25T00:41:01.152Z,18.33
2019-02-25T00:43:33.926Z,13.43
2019-02-25T00:46:05.517Z,27.63
2019-02-25T00:48:37.844Z,14.83
2019-02-25T00:51:07.657Z,18.90
2019-02-25T00:53:39.969Z,14.40
2019-02-25T00:56:14.611Z,20.70
2019-02-25T00:58:46.029Z,13.87
2019-02-25T01:01:17.159Z,14.63
2019-02-25T01:03:47.088Z,17.17
2019-02-25T01:06:16.878Z,12.53
2019-02-25T01:08:46.888Z,14.67
2019-02-25T01:11:17.160Z,10.67
2019-02-25T01:13:46.895Z,16.30
2019-02-25T01:16:24.638Z,15.23
2019-02-25T01:18:54.986Z,16.17
2019-02-25T01:21:35.327Z,16.93
2019-02-25T01:24:06.871Z,19.77
2019-02-25T01:26:40.136Z,13.20
2019-02-25T01:29:12.364Z,15.73
2019-02-25T01:31:45.545Z,12.03
2019-02-25T01:34:15.800Z,20.50
2019-02-25T01:36:53.229Z,16.30
2019-02-25T01:39:24.286Z,16.23
2019-02-25T01:41:54.721Z,11.30
2019-02-25T01:44:28.633Z,18.30
2019-02-25T01:47:00.609Z,17.13
2019-02-25T01:49:30.723Z,16.27
2019-02-25T01:52:04.528Z,12.30
2019-02-25T01:54:43.735Z,11.67
2019-02-25T01:57:23.016Z,14.03
2019-02-25T01:59:54.099Z,14.60
2019-02-25T02:02:27.501Z,12.73
2019-02-25T02:05:01.090Z,14.73
2019-02-25T02:07:31.593Z,12.47
2019-02-25T02:10:02.307Z,14.00
2019-02-25T02:12:40.927Z,15.03
2019-02-25T02:15:16.901Z,18.40
2019-02-25T02:17:50.191Z,14.33
2019-02-25T02:20:20.361Z,19.07
2019-02-25T02:22:56.876Z,11.57
2019-02-25T02:25:27.003Z,16.90
2019-02-25T02:28:00.701Z,32.43
2019-02-25T02:30:31.135Z,17.37
2019-02-25T02:33:01.438Z,12.10
2019-02-25T02:35:34.449Z,14.87
2019-02-25T02:38:05.404Z,14.00
2019-02-25T02:40:35.278Z,16.13
2019-02-25T02:43:06.418Z,10.97
2019-02-25T02:45:42.606Z,17.40
2019-02-25T02:48:16.097Z,12.27
2019-02-25T02:50:46.161Z,25.33
2019-02-25T02:53:15.865Z,14.77
2019-02-25T02:55:48.133Z,14.87
2019-02-25T02:58:17.981Z,21.17
2019-02-25T03:00:47.951Z,10.33
2019-02-25T03:03:17.855Z,13.70
2019-02-25T03:05:50.526Z,15.10
2019-02-25T03:08:20.532Z,13.63
2019-02-25T03:10:50.335Z,12.10
2019-02-25T03:13:20.082Z,14.70
2019-02-25T03:15:52.599Z,12.33
2019-02-25T03:18:22.414Z,17.67
2019-02-25T03:20:52.168Z,16.00
2019-02-25T03:23:21.922Z,20.33
2019-02-25T03:25:54.360Z,12.90
2019-02-25T03:28:24.162Z,13.43
2019-02-25T03:30:55.341Z,13.17
2019-02-25T03:33:25.125Z,12.33
2019-02-25T03:35:54.882Z,13.53
2019-02-25T03:38:24.616Z,15.70
2019-02-25T03:40:55.480Z,16.70
2019-02-25T03:43:28.005Z,14.93
2019-02-25T03:46:04.772Z,20.97
2019-02-25T03:48:34.582Z,12.53
2019-02-25T03:51:08.013Z,13.90
2019-02-25T03:53:45.720Z,14.50
2019-02-25T03:56:18.411Z,24.57
2019-02-25T03:58:49.419Z,18.43
2019-02-25T04:01:21.310Z,20.73
2019-02-25T04:03:54.386Z,13.03
2019-02-25T04:06:24.369Z,20.60
2019-02-25T04:08:54.785Z,15.27
2019-02-25T04:11:24.611Z,15.17
2019-02-25T04:13:54.383Z,17.00
2019-02-25T04:16:24.332Z,20.77
2019-02-25T04:18:54.150Z,16.70
2019-02-25T04:21:23.914Z,14.87
2019-02-25T04:23:53.665Z,15.73
2019-02-25T04:26:23.877Z,28.80
2019-02-25T04:28:53.537Z,27.37
2019-02-25T04:31:23.708Z,19.50
2019-02-25T04:33:53.512Z,20.47
2019-02-25T04:36:23.212Z,16.17
2019-02-25T04:38:52.905Z,13.30
2019-02-25T04:41:22.676Z,13.17
2019-02-25T04:43:52.412Z,15.17
2019-02-25T04:46:25.300Z,15.20
2019-02-25T04:48:55.103Z,16.10
2019-02-25T04:51:25.170Z,15.27
2019-02-25T04:53:55.059Z,19.97
2019-02-25T04:56:25.618Z,17.80
2019-02-25T04:58:56.394Z,15.67
2019-02-25T05:01:26.185Z,17.00
2019-02-25T05:03:59.514Z,16.03
2019-02-25T05:06:44.644Z,14.10
2019-02-25T05:09:14.384Z,15.63
2019-02-25T05:11:44.186Z,15.27
2019-02-25T05:14:14.384Z,12.90
2019-02-25T05:16:46.949Z,13.67
2019-02-25T05:19:18.996Z,21.37
2019-02-25T05:21:50.189Z,17.80
2019-02-25T05:24:21.629Z,30.50
2019-02-25T05:26:52.032Z,15.93
2019-02-25T05:29:23.972Z,17.57
2019-02-25T05:31:54.066Z,20.80
2019-02-25T05:34:23.873Z,22.57
2019-02-25T05:36:53.647Z,15.63
2019-02-25T05:39:24.672Z,10.63
2019-02-25T05:41:54.605Z,28.50
2019-02-25T05:44:24.841Z,17.40
2019-02-25T05:46:54.684Z,21.30
2019-02-25T05:49:27.569Z,16.17
2019-02-25T05:51:57.315Z,23.37
2019-02-25T05:54:27.169Z,18.17
2019-02-25T05:56:57.097Z,16.57
2019-02-25T05:59:27.199Z,15.73
2019-02-25T06:02:02.054Z,18.53
2019-02-25T06:04:32.429Z,24.83
2019-02-25T06:07:02.142Z,19.33
2019-02-25T06:09:31.896Z,26.00
2019-02-25T06:12:01.760Z,25.50
2019-02-25T06:14:31.488Z,16.43
2019-02-25T06:17:01.337Z,25.80
2019-02-25T06:19:32.441Z,16.33
2019-02-25T06:22:02.646Z,15.63
2019-02-25T06:24:32.662Z,18.03
2019-02-25T06:27:02.557Z,15.93
2019-02-25T06:29:32.667Z,20.93
2019-02-25T06:32:03.220Z,33.50
2019-02-25T06:34:33.423Z,16.50
2019-02-25T06:37:03.365Z,13.70
2019-02-25T06:39:33.414Z,26.93
2019-02-25T06:42:03.230Z,13.80
2019-02-25T06:44:34.816Z,27.50
2019-02-25T06:47:04.682Z,21.20
2019-02-25T06:49:34.757Z,23.83
2019-02-25T06:52:04.942Z,25.30
2019-02-25T06:54:46.194Z,19.83
2019-02-25T06:57:16.409Z,17.50
2019-02-25T06:59:52.340Z,28.47
2019-02-25T07:02:22.163Z,13.87
2019-02-25T07:05:08.553Z,26.03
2019-02-25T07:07:56.647Z,12.77
2019-02-25T07:10:48.609Z,27.53
2019-02-25T07:13:35.966Z,18.70
2019-02-25T07:16:28.120Z,18.20
2019-02-25T07:19:24.089Z,15.33
2019-02-25T07:22:12.821Z,24.60
2019-02-25T07:25:05.112Z,18.67
2019-02-25T07:27:59.791Z,18.70
2019-02-25T07:31:06.579Z,20.40
2019-02-25T07:33:56.826Z,18.90
2019-02-25T07:36:44.683Z,27.67
2019-02-25T07:39:31.229Z,17.40
2019-02-25T07:42:26.180Z,19.40
2019-02-25T07:45:14.740Z,15.97
2019-02-25T07:48:09.765Z,80.57
2019-02-25T07:51:03.584Z,21.93
2019-02-25T07:53:41.665Z,23.53
2019-02-25T07:56:32.375Z,17.03
2019-02-25T07:59:21.589Z,21.40
2019-02-25T08:02:10.187Z,17.33
2019-02-25T08:04:59.334Z,19.57
2019-02-25T08:07:53.570Z,23.40
2019-02-25T08:10:45.842Z,13.73
2019-02-25T08:13:27.651Z,26.13
2019-02-25T08:16:21.976Z,14.27
2019-02-25T08:19:13.116Z,12.80
2019-02-25T08:22:16.103Z,33.23
2019-02-25T08:25:05.112Z,19.97
2019-02-25T08:27:54.106Z,17.87
2019-02-25T08:30:43.046Z,16.07
2019-02-25T08:33:50.156Z,17.53
2019-02-25T08:37:02.410Z,14.70
2019-02-25T08:39:37.707Z,23.13
2019-02-25T08:42:19.916Z,31.27
2019-02-25T08:45:14.965Z,14.93
2019-02-25T08:47:58.396Z,21.00
2019-02-25T08:50:25.797Z,24.80
2019-02-25T08:52:58.434Z,16.97
2019-02-25T08:55:32.321Z,15.03
2019-02-25T08:58:02.390Z,13.50
2019-02-25T09:00:35.843Z,20.63
2019-02-25T09:03:06.553Z,14.10
2019-02-25T09:05:36.246Z,14.13
2019-02-25T09:08:06.264Z,19.13
2019-02-25T09:10:36.602Z,26.30
2019-02-25T09:13:06.762Z,28.97
2019-02-25T09:15:37.013Z,17.97
2019-02-25T09:18:05.313Z,16.23
2019-02-25T09:20:35.825Z,16.70
2019-02-25T09:23:13.338Z,14.40
2019-02-25T09:25:56.365Z,12.30
2019-02-25T09:28:27.067Z,18.67
2019-02-25T09:31:01.012Z,18.80
2019-02-25T09:33:30.911Z,20.33
2019-02-25T09:36:05.293Z,18.10
2019-02-25T09:38:38.313Z,16.07
2019-02-25T09:41:08.246Z,15.23
2019-02-25T09:43:38.451Z,14.67
2019-02-25T09:46:09.169Z,12.70
2019-02-25T09:48:39.750Z,25.50
2019-02-25T09:51:11.255Z,20.47
2019-02-25T09:53:43.929Z,16.97
2019-02-25T09:56:15.649Z,13.30
2019-02-25T09:58:46.204Z,15.73
2019-02-25T10:01:17.006Z,11.50
2019-02-25T10:03:56.799Z,15.23
2019-02-25T10:06:29.405Z,16.43
2019-02-25T10:09:07.877Z,10.40
2019-02-25T10:11:37.976Z,10.63
2019-02-25T10:14:08.706Z,12.27
2019-02-25T10:16:39.142Z,17.43
2019-02-25T10:19:09.640Z,16.90
2019-02-25T10:21:40.922Z,10.17
2019-02-25T10:24:11.932Z,11.83
2019-02-25T10:26:42.186Z,12.30
2019-02-25T10:29:15.589Z,16.17
2019-02-25T10:31:50.278Z,14.63
2019-02-25T10:34:26.411Z,33.43
2019-02-25T10:37:12.975Z,16.90
2019-02-25T10:39:49.468Z,14.00
2019-02-25T10:42:21.186Z,14.00
2019-02-25T10:44:52.454Z,19.03
2019-02-25T10:47:24.252Z,24.83
2019-02-25T10:49:56.621Z,10.50
2019-02-25T10:52:31.870Z,12.23
2019-02-25T10:55:08.250Z,9.40
2019-02-25T10:57:48.259Z,10.30
2019-02-25T11:00:23.062Z,11.40
2019-02-25T11:03:00.812Z,19.33
2019-02-25T11:05:33.682Z,10.20
2019-02-25T11:08:12.116Z,10.60
2019-02-25T11:11:03.228Z,9.57
2019-02-25T11:13:36.518Z,12.80
2019-02-25T11:16:20.387Z,13.57
2019-02-25T11:18:52.784Z,8.30
2019-02-25T11:21:27.973Z,24.73
2019-02-25T11:24:18.612Z,5.43
2019-02-25T11:27:07.329Z,4.80
2019-02-25T11:29:44.130Z,9.20
2019-02-25T11:32:27.962Z,7.93
2019-02-25T11:35:06.203Z,8.20
2019-02-25T11:38:01.703Z,8.57
2019-02-25T11:40:41.710Z,14.93
2019-02-25T11:43:16.622Z,14.67
2019-02-25T11:45:57.190Z,13.70
2019-02-25T11:48:40.960Z,16.43
2019-02-25T11:51:21.388Z,8.30
2019-02-25T11:53:54.665Z,8.00
2019-02-25T11:56:25.660Z,9.30
2019-02-25T11:59:02.127Z,6.17
2019-02-25T12:01:49.578Z,9.77
2019-02-25T12:04:53.392Z,9.90
2019-02-25T12:07:32.444Z,11.10
2019-02-25T12:10:12.086Z,8.77
2019-02-25T12:12:43.693Z,11.23
2019-02-25T12:15:24.632Z,8.00
2019-02-25T12:17:57.246Z,11.17
2019-02-25T12:20:47.095Z,8.07
2019-02-25T12:23:26.846Z,8.37
2019-02-25T12:26:06.504Z,6.93
2019-02-25T12:28:52.566Z,8.47
2019-02-25T12:31:23.608Z,9.63
2019-02-25T12:33:59.928Z,13.80
2019-02-25T12:36:36.367Z,20.30
2019-02-25T12:39:10.459Z,65.30
2019-02-25T12:42:09.428Z,10.50
2019-02-25T12:44:45.869Z,7.43
2019-02-25T12:47:18.606Z,7.67
2019-02-25T12:49:52.805Z,16.87
2019-02-25T12:52:37.791Z,71.63
2019-02-25T12:55:10.754Z,7.07
2019-02-25T12:57:46.225Z,11.57
2019-02-25T13:00:29.082Z,7.63
2019-02-25T13:03:00.762Z,21.60
2019-02-25T13:05:32.491Z,18.60
2019-02-25T13:08:04.806Z,12.17
2019-02-25T13:10:38.267Z,8.17
2019-02-25T13:13:11.088Z,17.00
2019-02-25T13:15:54.794Z,11.20
2019-02-25T13:18:33.334Z,14.50
2019-02-25T13:21:09.143Z,7.83
2019-02-25T13:23:42.097Z,6.83
2019-02-25T13:26:14.151Z,11.30
2019-02-25T13:28:53.367Z,13.87
2019-02-25T13:31:31.679Z,7.73
2019-02-25T13:34:04.445Z,4.70
2019-02-25T13:36:35.844Z,14.03
2019-02-25T13:39:18.147Z,6.80
2019-02-25T13:41:53.083Z,12.50
2019-02-25T13:44:24.235Z,5.63
2019-02-25T13:46:55.492Z,7.13
2019-02-25T13:49:26.264Z,28.70
2019-02-25T13:52:02.355Z,32.90
2019-02-25T13:54:32.722Z,14.07
2019-02-25T13:57:09.909Z,8.30
2019-02-25T13:59:48.953Z,11.93
2019-02-25T14:02:24.722Z,9.40
2019-02-25T14:05:02.118Z,14.30
2019-02-25T14:07:40.880Z,7.90
2019-02-25T14:10:18.643Z,6.43
2019-02-25T14:12:51.360Z,7.87
2019-02-25T14:15:43.177Z,4.53
2019-02-25T14:18:14.014Z,6.17
2019-02-25T14:20:49.213Z,10.97
2019-02-25T14:23:23.158Z,6.10
2019-02-25T14:25:53.758Z,6.33
2019-02-25T14:28:25.077Z,11.73
2019-02-25T14:30:57.947Z,7.97
2019-02-25T14:33:51.940Z,10.90
2019-02-25T14:36:20.534Z,23.17
2019-02-25T14:38:54.130Z,17.17
2019-02-25T14:41:26.930Z,13.97
2019-02-25T14:43:58.748Z,9.83
2019-02-25T14:46:29.094Z,8.67
2019-02-25T14:49:05.294Z,13.10
2019-02-25T14:51:38.444Z,17.97
2019-02-25T14:54:16.653Z,10.37
2019-02-25T14:57:05.017Z,10.70
2019-02-25T14:59:28.048Z,11.67
2019-02-25T15:02:01.489Z,14.00
2019-02-25T15:04:35.080Z,16.40
2019-02-25T15:07:06.911Z,9.50
2019-02-25T15:09:38.801Z,17.20
2019-02-25T15:12:11.684Z,18.17
2019-02-25T15:14:50.056Z,21.93
2019-02-25T15:17:20.283Z,16.13
2019-02-25T15:19:50.753Z,11.33
2019-02-25T15:22:24.145Z,12.10
2019-02-25T15:24:57.093Z,22.50
2019-02-25T15:27:26.722Z,13.00
2019-02-25T15:29:58.492Z,11.93
2019-02-25T15:32:31.432Z,15.37
2019-02-25T15:35:08.699Z,13.40
2019-02-25T15:37:44.587Z,20.17
2019-02-25T15:40:20.344Z,7.97
2019-02-25T15:43:15.144Z,10.30
2019-02-25T15:46:04.574Z,11.07
2019-02-25T15:48:43.529Z,11.70
2019-02-25T15:51:32.616Z,22.23
2019-02-25T15:54:10.124Z,16.63
2019-02-25T15:56:41.228Z,16.57
2019-02-25T15:59:18.559Z,5.53
2019-02-25T16:01:55.368Z,12.37
2019-02-25T16:04:33.990Z,196.83
2019-02-25T16:07:10.557Z,16.53
2019-02-25T16:09:57.136Z,19.80
2019-02-25T16:12:42.116Z,12.03
2019-02-25T16:15:30.622Z,10.70
2019-02-25T16:18:06.592Z,57.10
2019-02-25T16:20:59.798Z,20.40
2019-02-25T16:23:40.895Z,14.00
2019-02-25T16:26:13.397Z,10.50
2019-02-25T16:28:45.094Z,22.70
2019-02-25T16:32:01.334Z,34.80
2019-02-25T16:34:56.467Z,11.20
2019-02-25T16:37:38.086Z,8.00
2019-02-25T16:40:40.052Z,22.63
2019-02-25T16:43:26.697Z,26.47
2019-02-25T16:45:59.472Z,20.17
2019-02-25T16:48:41.110Z,25.07
2019-02-25T16:51:14.514Z,24.13
2019-02-25T16:53:50.479Z,21.87
2019-02-25T16:56:19.153Z,23.00
2019-02-25T16:58:52.629Z,34.43
2019-02-25T17:01:34.391Z,39.20
2019-02-25T17:04:03.243Z,37.97
2019-02-25T17:06:51.310Z,59.50
2019-02-25T17:09:34.103Z,33.73
2019-02-25T17:12:09.098Z,33.27
2019-02-25T17:14:44.522Z,39.73
2019-02-25T17:17:15.115Z,84.27
2019-02-25T17:19:54.061Z,41.57
2019-02-25T17:22:26.694Z,46.57
2019-02-25T17:25:21.903Z,44.63
2019-02-25T17:28:07.639Z,28.53
2019-02-25T17:30:52.673Z,32.10
2019-02-25T17:33:30.270Z,43.93
2019-02-25T17:36:00.312Z,39.60
2019-02-25T17:38:33.163Z,40.37
2019-02-25T17:41:22.696Z,52.77
2019-02-25T17:44:06.357Z,42.00
2019-02-25T17:46:41.190Z,40.20
2019-02-25T17:49:19.002Z,28.33
2019-02-25T17:51:56.209Z,37.80
2019-02-25T17:54:29.032Z,104.77
2019-02-25T17:57:09.270Z,38.90
2019-02-25T17:59:39.639Z,35.40
2019-02-25T18:02:12.948Z,70.67
2019-02-25T18:04:44.209Z,25.57
2019-02-25T18:07:18.233Z,55.57
2019-02-25T18:10:13.746Z,37.23
2019-02-25T18:12:50.749Z,37.97
2019-02-25T18:15:40.371Z,47.27
2019-02-25T18:18:17.793Z,41.40
2019-02-25T18:20:54.802Z,46.53
2019-02-25T18:23:40.401Z,34.70
2019-02-25T18:26:18.021Z,52.07
2019-02-25T18:28:50.314Z,44.67
2019-02-25T18:31:22.199Z,45.40
2019-02-25T18:34:04.757Z,47.87
2019-02-25T18:36:36.280Z,73.13
2019-02-25T18:39:27.401Z,65.93
2019-02-25T18:42:06.547Z,67.87
2019-02-25T18:44:53.429Z,74.03
2019-02-25T18:47:41.912Z,83.13
2019-02-25T18:50:17.289Z,66.67
2019-02-25T18:52:59.571Z,63.57
2019-02-25T18:55:34.221Z,63.67
2019-02-25T18:58:09.639Z,84.50
2019-02-25T19:00:44.664Z,84.33
2019-02-25T19:03:18.614Z,72.60
2019-02-25T19:05:53.231Z,82.50
2019-02-25T19:08:26.769Z,74.80
2019-02-25T19:11:00.455Z,68.30
2019-02-25T19:13:32.041Z,97.57
2019-02-25T19:16:04.366Z,98.37
2019-02-25T19:18:47.233Z,75.43
2019-02-25T19:21:23.287Z,69.53
2019-02-25T19:23:58.030Z,184.57
2019-02-25T19:26:38.079Z,76.87
2019-02-25T19:29:19.505Z,59.33
2019-02-25T19:35:07.560Z,52.83
2019-02-25T19:37:54.460Z,55.53
2019-02-25T19:40:40.321Z,63.90
2019-02-25T19:43:37.928Z,79.07
2019-02-25T19:46:25.273Z,143.13
2019-02-25T19:49:18.879Z,90.47
2019-02-25T19:52:12.001Z,75.13
2019-02-25T19:55:00.281Z,60.13
2019-02-25T19:57:37.338Z,54.20
2019-02-25T20:00:39.169Z,69.67
2019-02-25T20:03:18.618Z,66.03
2019-02-25T20:06:18.778Z,66.77
2019-02-25T20:09:02.495Z,63.27
2019-02-25T20:11:36.613Z,70.60
2019-02-25T20:14:11.358Z,50.67
2019-02-25T20:16:44.402Z,50.13
2019-02-25T20:19:20.334Z,51.57
2019-02-25T20:22:04.674Z,71.53
2019-02-25T20:24:39.821Z,46.70
2019-02-25T20:27:18.757Z,45.00
2019-02-25T20:29:50.567Z,58.40
2019-02-25T20:32:21.658Z,55.07
2019-02-25T20:35:00.953Z,51.93
2019-02-25T20:37:33.857Z,47.70
2019-02-25T20:40:07.578Z,43.63
2019-02-25T20:42:55.923Z,53.20
2019-02-25T20:45:28.849Z,48.30
2019-02-25T20:48:16.519Z,68.37
2019-02-25T20:50:59.625Z,63.13
2019-02-25T20:53:30.101Z,46.57
2019-02-25T20:56:01.508Z,52.27
2019-02-25T20:58:46.767Z,53.33
2019-02-25T21:01:20.821Z,63.57
2019-02-25T21:03:52.652Z,51.23
2019-02-25T21:06:29.273Z,53.07
2019-02-25T21:09:02.434Z,48.00
2019-02-25T21:11:32.513Z,46.50
2019-02-25T21:14:05.181Z,54.63
2019-02-25T21:16:37.641Z,79.43
2019-02-25T21:19:10.169Z,48.73
2019-02-25T21:21:44.892Z,51.63
2019-02-25T21:24:19.228Z,68.57
2019-02-25T21:26:57.102Z,99.27
2019-02-25T21:29:31.854Z,52.47
2019-02-25T21:32:21.954Z,41.97
2019-02-25T21:34:52.801Z,55.27
2019-02-25T21:37:29.311Z,30.57
2019-02-25T21:40:00.955Z,34.17
2019-02-25T21:42:33.318Z,31.80
2019-02-25T21:45:07.891Z,25.20
2019-02-25T21:47:41.750Z,28.77
2019-02-25T21:50:18.021Z,23.73
2019-02-25T21:52:53.433Z,23.03
2019-02-25T21:55:33.155Z,23.73
2019-02-25T21:58:05.240Z,27.30
2019-02-25T22:00:38.638Z,26.70
2019-02-25T22:03:10.900Z,68.80
2019-02-25T22:05:49.445Z,47.83
2019-02-25T22:08:24.112Z,25.57
2019-02-25T22:10:54.969Z,25.07
2019-02-25T22:13:27.994Z,28.77
2019-02-25T22:15:59.125Z,20.97
2019-02-25T22:18:31.858Z,28.13
2019-02-25T22:21:07.167Z,32.27
2019-02-25T22:23:37.121Z,28.03
2019-02-25T22:26:07.899Z,23.53
2019-02-25T22:28:40.981Z,21.93
2019-02-25T22:31:18.921Z,36.77
2019-02-25T22:33:49.292Z,38.07
2019-02-25T22:36:22.180Z,24.13
2019-02-25T22:38:52.196Z,38.03
2019-02-25T22:41:25.089Z,20.40
2019-02-25T22:43:54.674Z,15.23
2019-02-25T22:46:29.964Z,18.20
2019-02-25T22:48:59.325Z,30.17
2019-02-25T22:51:33.181Z,35.63
2019-02-25T22:54:06.157Z,26.50
2019-02-25T22:56:40.194Z,24.37
2019-02-25T22:59:10.257Z,30.63
2019-02-25T23:01:40.704Z,25.40
2019-02-25T23:04:19.677Z,38.60
2019-02-25T23:06:55.689Z,18.03
2019-02-25T23:09:26.674Z,25.80
2019-02-25T23:11:57.174Z,20.00
2019-02-25T23:14:27.057Z,22.90
2019-02-25T23:17:08.865Z,24.50
2019-02-25T23:19:40.898Z,21.30
2019-02-25T23:22:10.958Z,17.93
2019-02-25T23:24:43.847Z,23.87
2019-02-25T23:27:14.716Z,58.97
2019-02-25T23:29:47.783Z,35.87
2019-02-25T23:32:18.156Z,20.07
2019-02-25T23:34:50.667Z,26.57
2019-02-25T23:37:21.576Z,32.40
2019-02-25T23:39:51.296Z,30.77
2019-02-25T23:42:23.626Z,26.67
2019-02-25T23:44:53.693Z,28.00
2019-02-25T23:47:28.937Z,39.80
2019-02-25T23:50:00.888Z,63.27
2019-02-25T23:52:37.846Z,41.10
2019-02-25T23:55:12.177Z,22.30
2019-02-25T23:57:40.839Z,21.47
